sensor_id;sensor_type;location;lat;lon;timestamp;P1;durP1;ratioP1;P2;durP2;ratioP2
11771;SDS011;12556;55.748;13.194;2023-09-30T00:01:21;21.70;;;5.50;;
11771;SDS011;12556;55.748;13.194;2023-09-30T00:03:48;15.70;;;5.70;;
11771;SDS011;12556;55.748;13.194;2023-09-30T00:06:15;21.87;;;5.47;;
11771;SDS011;12556;55.748;13.194;2023-09-30T00:08:42;13.23;;;4.97;;
11771;SDS011;12556;55.748;13.194;2023-09-30T00:11:09;12.53;;;5.00;;
11771;SDS011;12556;55.748;13.194;2023-09-30T00:13:37;13.97;;;5.23;;
11771;SDS011;12556;55.748;13.194;2023-09-30T00:16:04;17.73;;;5.03;;
11771;SDS011;12556;55.748;13.194;2023-09-30T00:18:32;15.57;;;5.33;;
11771;SDS011;12556;55.748;13.194;2023-09-30T00:20:59;17.47;;;4.93;;
11771;SDS011;12556;55.748;13.194;2023-09-30T00:23:26;13.03;;;4.83;;
11771;SDS011;12556;55.748;13.194;2023-09-30T00:25:52;14.33;;;5.03;;
11771;SDS011;12556;55.748;13.194;2023-09-30T00:28:20;17.00;;;5.40;;
11771;SDS011;12556;55.748;13.194;2023-09-30T00:30:48;14.93;;;5.23;;
11771;SDS011;12556;55.748;13.194;2023-09-30T00:33:15;13.00;;;5.27;;
11771;SDS011;12556;55.748;13.194;2023-09-30T00:35:42;11.23;;;5.10;;
11771;SDS011;12556;55.748;13.194;2023-09-30T00:38:09;16.77;;;5.27;;
11771;SDS011;12556;55.748;13.194;2023-09-30T00:40:35;18.60;;;4.90;;
11771;SDS011;12556;55.748;13.194;2023-09-30T00:43:02;19.73;;;5.40;;
11771;SDS011;12556;55.748;13.194;2023-09-30T00:45:30;11.80;;;5.00;;
11771;SDS011;12556;55.748;13.194;2023-09-30T00:47:58;17.87;;;5.73;;
11771;SDS011;12556;55.748;13.194;2023-09-30T00:50:25;15.03;;;5.17;;
11771;SDS011;12556;55.748;13.194;2023-09-30T00:52:53;16.57;;;5.43;;
11771;SDS011;12556;55.748;13.194;2023-09-30T00:55:21;19.27;;;5.80;;
11771;SDS011;12556;55.748;13.194;2023-09-30T00:57:48;15.07;;;4.90;;
11771;SDS011;12556;55.748;13.194;2023-09-30T01:00:16;17.20;;;5.23;;
11771;SDS011;12556;55.748;13.194;2023-09-30T01:02:44;16.00;;;5.23;;
11771;SDS011;12556;55.748;13.194;2023-09-30T01:05:13;18.53;;;5.00;;
11771;SDS011;12556;55.748;13.194;2023-09-30T01:07:40;22.43;;;5.77;;
11771;SDS011;12556;55.748;13.194;2023-09-30T01:10:07;17.97;;;5.70;;
11771;SDS011;12556;55.748;13.194;2023-09-30T01:12:34;14.73;;;5.03;;
11771;SDS011;12556;55.748;13.194;2023-09-30T01:15:01;13.27;;;4.07;;
11771;SDS011;12556;55.748;13.194;2023-09-30T01:17:29;21.77;;;5.73;;
11771;SDS011;12556;55.748;13.194;2023-09-30T01:19:57;16.53;;;5.20;;
11771;SDS011;12556;55.748;13.194;2023-09-30T01:22:26;18.90;;;5.63;;
11771;SDS011;12556;55.748;13.194;2023-09-30T01:24:55;15.47;;;5.13;;
11771;SDS011;12556;55.748;13.194;2023-09-30T01:27:22;14.97;;;5.27;;
11771;SDS011;12556;55.748;13.194;2023-09-30T01:29:48;16.90;;;4.60;;
11771;SDS011;12556;55.748;13.194;2023-09-30T01:32:15;16.67;;;4.57;;
11771;SDS011;12556;55.748;13.194;2023-09-30T01:34:42;15.87;;;5.00;;
11771;SDS011;12556;55.748;13.194;2023-09-30T01:37:09;16.77;;;5.47;;
11771;SDS011;12556;55.748;13.194;2023-09-30T01:39:37;24.93;;;5.23;;
11771;SDS011;12556;55.748;13.194;2023-09-30T01:42:04;15.30;;;4.63;;
11771;SDS011;12556;55.748;13.194;2023-09-30T01:44:31;18.30;;;5.03;;
11771;SDS011;12556;55.748;13.194;2023-09-30T01:46:58;17.30;;;5.07;;
11771;SDS011;12556;55.748;13.194;2023-09-30T01:49:26;18.63;;;5.20;;
11771;SDS011;12556;55.748;13.194;2023-09-30T01:51:52;16.30;;;4.97;;
11771;SDS011;12556;55.748;13.194;2023-09-30T01:54:19;20.63;;;4.73;;
11771;SDS011;12556;55.748;13.194;2023-09-30T01:56:48;18.87;;;4.67;;
11771;SDS011;12556;55.748;13.194;2023-09-30T01:59:15;18.40;;;5.40;;
11771;SDS011;12556;55.748;13.194;2023-09-30T02:01:43;14.47;;;5.03;;
11771;SDS011;12556;55.748;13.194;2023-09-30T02:04:11;18.27;;;5.47;;
11771;SDS011;12556;55.748;13.194;2023-09-30T02:06:38;18.40;;;5.87;;
11771;SDS011;12556;55.748;13.194;2023-09-30T02:09:05;21.57;;;5.80;;
11771;SDS011;12556;55.748;13.194;2023-09-30T02:11:33;15.37;;;4.77;;
11771;SDS011;12556;55.748;13.194;2023-09-30T02:14:03;14.27;;;5.03;;
11771;SDS011;12556;55.748;13.194;2023-09-30T02:16:30;16.43;;;4.60;;
11771;SDS011;12556;55.748;13.194;2023-09-30T02:18:58;16.67;;;5.23;;
11771;SDS011;12556;55.748;13.194;2023-09-30T02:21:24;16.20;;;5.27;;
11771;SDS011;12556;55.748;13.194;2023-09-30T02:23:53;19.67;;;4.33;;
11771;SDS011;12556;55.748;13.194;2023-09-30T02:26:21;17.03;;;4.97;;
11771;SDS011;12556;55.748;13.194;2023-09-30T02:28:50;22.07;;;5.03;;
11771;SDS011;12556;55.748;13.194;2023-09-30T02:31:19;15.03;;;5.33;;
11771;SDS011;12556;55.748;13.194;2023-09-30T02:33:45;17.77;;;5.00;;
11771;SDS011;12556;55.748;13.194;2023-09-30T02:36:12;14.60;;;4.57;;
11771;SDS011;12556;55.748;13.194;2023-09-30T02:38:40;15.70;;;4.83;;
11771;SDS011;12556;55.748;13.194;2023-09-30T02:41:08;17.03;;;5.20;;
11771;SDS011;12556;55.748;13.194;2023-09-30T02:43:35;18.43;;;5.03;;
11771;SDS011;12556;55.748;13.194;2023-09-30T02:46:03;16.87;;;4.67;;
11771;SDS011;12556;55.748;13.194;2023-09-30T02:48:31;20.33;;;5.07;;
11771;SDS011;12556;55.748;13.194;2023-09-30T02:50:58;18.60;;;5.50;;
11771;SDS011;12556;55.748;13.194;2023-09-30T02:53:25;19.80;;;5.10;;
11771;SDS011;12556;55.748;13.194;2023-09-30T02:55:52;20.63;;;5.20;;
11771;SDS011;12556;55.748;13.194;2023-09-30T02:58:21;12.70;;;4.43;;
11771;SDS011;12556;55.748;13.194;2023-09-30T03:00:48;20.50;;;5.20;;
11771;SDS011;12556;55.748;13.194;2023-09-30T03:03:15;20.70;;;5.53;;
11771;SDS011;12556;55.748;13.194;2023-09-30T03:05:43;15.83;;;4.97;;
11771;SDS011;12556;55.748;13.194;2023-09-30T03:08:10;18.10;;;4.93;;
11771;SDS011;12556;55.748;13.194;2023-09-30T03:10:37;14.47;;;5.40;;
11771;SDS011;12556;55.748;13.194;2023-09-30T03:13:05;19.13;;;5.10;;
11771;SDS011;12556;55.748;13.194;2023-09-30T03:15:34;14.30;;;4.60;;
11771;SDS011;12556;55.748;13.194;2023-09-30T03:18:01;19.33;;;5.13;;
11771;SDS011;12556;55.748;13.194;2023-09-30T03:20:28;16.73;;;5.23;;
11771;SDS011;12556;55.748;13.194;2023-09-30T03:22:57;16.67;;;4.80;;
11771;SDS011;12556;55.748;13.194;2023-09-30T03:25:24;19.17;;;6.57;;
11771;SDS011;12556;55.748;13.194;2023-09-30T03:27:52;22.97;;;6.53;;
11771;SDS011;12556;55.748;13.194;2023-09-30T03:30:18;18.77;;;6.13;;
11771;SDS011;12556;55.748;13.194;2023-09-30T03:32:46;13.97;;;5.43;;
11771;SDS011;12556;55.748;13.194;2023-09-30T03:35:13;16.63;;;5.57;;
11771;SDS011;12556;55.748;13.194;2023-09-30T03:37:42;14.80;;;4.20;;
11771;SDS011;12556;55.748;13.194;2023-09-30T03:40:11;18.73;;;5.13;;
11771;SDS011;12556;55.748;13.194;2023-09-30T03:42:39;15.97;;;4.10;;
11771;SDS011;12556;55.748;13.194;2023-09-30T03:45:07;20.87;;;5.10;;
11771;SDS011;12556;55.748;13.194;2023-09-30T03:47:35;14.90;;;4.23;;
11771;SDS011;12556;55.748;13.194;2023-09-30T03:50:03;14.87;;;5.23;;
11771;SDS011;12556;55.748;13.194;2023-09-30T03:52:36;13.33;;;4.23;;
11771;SDS011;12556;55.748;13.194;2023-09-30T03:55:04;14.47;;;3.90;;
11771;SDS011;12556;55.748;13.194;2023-09-30T03:57:32;15.97;;;4.93;;
11771;SDS011;12556;55.748;13.194;2023-09-30T03:59:59;16.03;;;4.00;;
11771;SDS011;12556;55.748;13.194;2023-09-30T04:02:30;19.93;;;4.40;;
11771;SDS011;12556;55.748;13.194;2023-09-30T04:04:57;18.90;;;5.10;;
11771;SDS011;12556;55.748;13.194;2023-09-30T04:07:25;19.00;;;5.17;;
11771;SDS011;12556;55.748;13.194;2023-09-30T04:09:53;16.40;;;4.27;;
11771;SDS011;12556;55.748;13.194;2023-09-30T04:12:20;20.70;;;5.20;;
11771;SDS011;12556;55.748;13.194;2023-09-30T04:14:50;26.17;;;5.23;;
11771;SDS011;12556;55.748;13.194;2023-09-30T04:17:17;20.53;;;4.87;;
11771;SDS011;12556;55.748;13.194;2023-09-30T04:19:43;17.30;;;4.73;;
11771;SDS011;12556;55.748;13.194;2023-09-30T04:22:10;18.77;;;5.57;;
11771;SDS011;12556;55.748;13.194;2023-09-30T04:24:38;17.80;;;4.87;;
11771;SDS011;12556;55.748;13.194;2023-09-30T04:27:04;15.77;;;4.27;;
11771;SDS011;12556;55.748;13.194;2023-09-30T04:29:33;14.20;;;4.07;;
11771;SDS011;12556;55.748;13.194;2023-09-30T04:32:01;18.67;;;4.40;;
11771;SDS011;12556;55.748;13.194;2023-09-30T04:34:28;22.97;;;4.73;;
11771;SDS011;12556;55.748;13.194;2023-09-30T04:36:55;14.63;;;4.50;;
11771;SDS011;12556;55.748;13.194;2023-09-30T04:39:22;15.07;;;5.10;;
11771;SDS011;12556;55.748;13.194;2023-09-30T04:41:49;19.80;;;4.33;;
11771;SDS011;12556;55.748;13.194;2023-09-30T04:44:16;16.57;;;4.30;;
11771;SDS011;12556;55.748;13.194;2023-09-30T04:46:43;13.30;;;4.57;;
11771;SDS011;12556;55.748;13.194;2023-09-30T04:49:12;28.40;;;5.30;;
11771;SDS011;12556;55.748;13.194;2023-09-30T04:51:40;20.03;;;5.03;;
11771;SDS011;12556;55.748;13.194;2023-09-30T04:54:07;12.73;;;4.33;;
11771;SDS011;12556;55.748;13.194;2023-09-30T04:56:35;15.37;;;4.60;;
11771;SDS011;12556;55.748;13.194;2023-09-30T04:59:03;18.73;;;4.97;;
11771;SDS011;12556;55.748;13.194;2023-09-30T05:01:30;19.93;;;4.40;;
11771;SDS011;12556;55.748;13.194;2023-09-30T05:03:57;18.83;;;3.87;;
11771;SDS011;12556;55.748;13.194;2023-09-30T05:06:25;19.10;;;4.27;;
11771;SDS011;12556;55.748;13.194;2023-09-30T05:08:52;16.67;;;4.20;;
11771;SDS011;12556;55.748;13.194;2023-09-30T05:11:20;17.07;;;4.53;;
11771;SDS011;12556;55.748;13.194;2023-09-30T05:13:47;17.00;;;5.40;;
11771;SDS011;12556;55.748;13.194;2023-09-30T05:16:14;14.30;;;4.40;;
11771;SDS011;12556;55.748;13.194;2023-09-30T05:18:41;18.17;;;5.13;;
11771;SDS011;12556;55.748;13.194;2023-09-30T05:21:08;16.17;;;4.63;;
11771;SDS011;12556;55.748;13.194;2023-09-30T05:23:36;19.70;;;5.00;;
11771;SDS011;12556;55.748;13.194;2023-09-30T05:26:04;12.93;;;4.40;;
11771;SDS011;12556;55.748;13.194;2023-09-30T05:28:31;18.43;;;3.77;;
11771;SDS011;12556;55.748;13.194;2023-09-30T05:30:59;14.83;;;4.70;;
11771;SDS011;12556;55.748;13.194;2023-09-30T05:33:27;16.87;;;4.20;;
11771;SDS011;12556;55.748;13.194;2023-09-30T05:35:54;15.60;;;4.50;;
11771;SDS011;12556;55.748;13.194;2023-09-30T05:38:21;18.23;;;4.47;;
11771;SDS011;12556;55.748;13.194;2023-09-30T05:40:49;18.13;;;4.37;;
11771;SDS011;12556;55.748;13.194;2023-09-30T05:43:16;14.63;;;4.70;;
11771;SDS011;12556;55.748;13.194;2023-09-30T05:45:43;21.67;;;4.77;;
11771;SDS011;12556;55.748;13.194;2023-09-30T05:48:14;17.67;;;4.63;;
11771;SDS011;12556;55.748;13.194;2023-09-30T05:50:41;19.90;;;3.97;;
11771;SDS011;12556;55.748;13.194;2023-09-30T05:53:08;19.73;;;4.60;;
11771;SDS011;12556;55.748;13.194;2023-09-30T05:55:37;14.23;;;3.70;;
11771;SDS011;12556;55.748;13.194;2023-09-30T05:58:08;20.27;;;4.67;;
11771;SDS011;12556;55.748;13.194;2023-09-30T06:00:35;14.60;;;3.83;;
11771;SDS011;12556;55.748;13.194;2023-09-30T06:03:03;17.60;;;4.43;;
11771;SDS011;12556;55.748;13.194;2023-09-30T06:05:31;14.23;;;4.77;;
11771;SDS011;12556;55.748;13.194;2023-09-30T06:07:59;14.77;;;4.13;;
11771;SDS011;12556;55.748;13.194;2023-09-30T06:10:30;12.30;;;4.07;;
11771;SDS011;12556;55.748;13.194;2023-09-30T06:12:57;19.03;;;4.40;;
11771;SDS011;12556;55.748;13.194;2023-09-30T06:15:26;17.63;;;4.27;;
11771;SDS011;12556;55.748;13.194;2023-09-30T06:17:53;16.00;;;4.57;;
11771;SDS011;12556;55.748;13.194;2023-09-30T06:20:21;16.57;;;4.93;;
11771;SDS011;12556;55.748;13.194;2023-09-30T06:22:51;14.77;;;4.37;;
11771;SDS011;12556;55.748;13.194;2023-09-30T06:25:19;19.57;;;4.50;;
11771;SDS011;12556;55.748;13.194;2023-09-30T06:27:48;14.23;;;4.23;;
11771;SDS011;12556;55.748;13.194;2023-09-30T06:30:16;14.60;;;4.23;;
11771;SDS011;12556;55.748;13.194;2023-09-30T06:32:46;17.60;;;4.37;;
11771;SDS011;12556;55.748;13.194;2023-09-30T06:35:13;11.47;;;4.10;;
11771;SDS011;12556;55.748;13.194;2023-09-30T06:37:40;20.47;;;5.10;;
11771;SDS011;12556;55.748;13.194;2023-09-30T06:40:08;11.73;;;4.17;;
11771;SDS011;12556;55.748;13.194;2023-09-30T06:42:37;18.57;;;4.80;;
11771;SDS011;12556;55.748;13.194;2023-09-30T06:45:06;17.30;;;4.50;;
11771;SDS011;12556;55.748;13.194;2023-09-30T06:47:35;18.57;;;4.50;;
11771;SDS011;12556;55.748;13.194;2023-09-30T06:50:05;15.23;;;4.20;;
11771;SDS011;12556;55.748;13.194;2023-09-30T06:52:37;21.90;;;4.73;;
11771;SDS011;12556;55.748;13.194;2023-09-30T06:55:06;13.37;;;4.10;;
11771;SDS011;12556;55.748;13.194;2023-09-30T06:57:33;14.93;;;4.43;;
11771;SDS011;12556;55.748;13.194;2023-09-30T07:00:04;15.10;;;4.87;;
11771;SDS011;12556;55.748;13.194;2023-09-30T07:02:33;17.67;;;4.20;;
11771;SDS011;12556;55.748;13.194;2023-09-30T07:05:01;17.43;;;4.37;;
11771;SDS011;12556;55.748;13.194;2023-09-30T07:07:30;14.37;;;4.33;;
11771;SDS011;12556;55.748;13.194;2023-09-30T07:09:57;17.93;;;4.67;;
11771;SDS011;12556;55.748;13.194;2023-09-30T07:12:24;16.43;;;4.90;;
11771;SDS011;12556;55.748;13.194;2023-09-30T07:14:51;13.90;;;4.27;;
11771;SDS011;12556;55.748;13.194;2023-09-30T07:17:19;17.77;;;4.07;;
11771;SDS011;12556;55.748;13.194;2023-09-30T07:19:45;10.83;;;3.70;;
11771;SDS011;12556;55.748;13.194;2023-09-30T07:22:13;15.33;;;4.87;;
11771;SDS011;12556;55.748;13.194;2023-09-30T07:24:41;16.70;;;4.07;;
11771;SDS011;12556;55.748;13.194;2023-09-30T07:27:08;11.73;;;4.27;;
11771;SDS011;12556;55.748;13.194;2023-09-30T07:29:35;13.93;;;4.17;;
11771;SDS011;12556;55.748;13.194;2023-09-30T07:32:02;19.87;;;4.83;;
11771;SDS011;12556;55.748;13.194;2023-09-30T07:34:29;17.80;;;4.33;;
11771;SDS011;12556;55.748;13.194;2023-09-30T07:36:56;16.03;;;3.93;;
11771;SDS011;12556;55.748;13.194;2023-09-30T07:39:23;17.13;;;4.77;;
11771;SDS011;12556;55.748;13.194;2023-09-30T07:41:51;12.93;;;4.67;;
11771;SDS011;12556;55.748;13.194;2023-09-30T07:44:18;17.90;;;4.50;;
11771;SDS011;12556;55.748;13.194;2023-09-30T07:46:45;13.97;;;4.30;;
11771;SDS011;12556;55.748;13.194;2023-09-30T07:49:12;12.70;;;4.00;;
11771;SDS011;12556;55.748;13.194;2023-09-30T07:51:40;18.37;;;4.23;;
11771;SDS011;12556;55.748;13.194;2023-09-30T07:54:06;13.23;;;3.97;;
11771;SDS011;12556;55.748;13.194;2023-09-30T07:56:33;14.37;;;4.53;;
11771;SDS011;12556;55.748;13.194;2023-09-30T07:59:02;15.20;;;3.77;;
11771;SDS011;12556;55.748;13.194;2023-09-30T08:01:29;19.00;;;4.20;;
11771;SDS011;12556;55.748;13.194;2023-09-30T08:03:56;17.63;;;4.53;;
11771;SDS011;12556;55.748;13.194;2023-09-30T08:06:23;16.70;;;4.57;;
11771;SDS011;12556;55.748;13.194;2023-09-30T08:08:50;12.80;;;4.20;;
11771;SDS011;12556;55.748;13.194;2023-09-30T08:11:17;11.27;;;3.73;;
11771;SDS011;12556;55.748;13.194;2023-09-30T08:13:45;18.03;;;4.70;;
11771;SDS011;12556;55.748;13.194;2023-09-30T08:16:14;12.67;;;4.13;;
11771;SDS011;12556;55.748;13.194;2023-09-30T08:18:41;12.47;;;4.23;;
11771;SDS011;12556;55.748;13.194;2023-09-30T08:21:08;14.13;;;4.10;;
11771;SDS011;12556;55.748;13.194;2023-09-30T08:23:36;16.53;;;3.70;;
11771;SDS011;12556;55.748;13.194;2023-09-30T08:26:04;17.13;;;4.00;;
11771;SDS011;12556;55.748;13.194;2023-09-30T08:28:30;14.13;;;3.20;;
11771;SDS011;12556;55.748;13.194;2023-09-30T08:31:01;12.50;;;3.93;;
11771;SDS011;12556;55.748;13.194;2023-09-30T08:33:30;11.53;;;4.03;;
11771;SDS011;12556;55.748;13.194;2023-09-30T08:35:57;13.33;;;4.10;;
11771;SDS011;12556;55.748;13.194;2023-09-30T08:38:32;16.13;;;4.37;;
11771;SDS011;12556;55.748;13.194;2023-09-30T08:40:59;17.27;;;4.30;;
11771;SDS011;12556;55.748;13.194;2023-09-30T08:43:27;17.00;;;4.37;;
11771;SDS011;12556;55.748;13.194;2023-09-30T08:45:56;15.03;;;4.10;;
11771;SDS011;12556;55.748;13.194;2023-09-30T08:48:24;13.30;;;4.70;;
11771;SDS011;12556;55.748;13.194;2023-09-30T08:50:54;11.77;;;3.83;;
11771;SDS011;12556;55.748;13.194;2023-09-30T08:53:22;14.30;;;3.63;;
11771;SDS011;12556;55.748;13.194;2023-09-30T08:55:51;11.73;;;3.47;;
11771;SDS011;12556;55.748;13.194;2023-09-30T08:58:20;15.20;;;4.20;;
11771;SDS011;12556;55.748;13.194;2023-09-30T09:00:50;14.47;;;3.40;;
11771;SDS011;12556;55.748;13.194;2023-09-30T09:03:18;14.23;;;3.87;;
11771;SDS011;12556;55.748;13.194;2023-09-30T09:05:45;8.73;;;2.97;;
11771;SDS011;12556;55.748;13.194;2023-09-30T09:08:13;17.53;;;3.73;;
11771;SDS011;12556;55.748;13.194;2023-09-30T09:10:53;13.25;;;3.50;;
11771;SDS011;12556;55.748;13.194;2023-09-30T09:13:22;12.17;;;3.50;;
11771;SDS011;12556;55.748;13.194;2023-09-30T09:15:49;12.83;;;4.03;;
11771;SDS011;12556;55.748;13.194;2023-09-30T09:18:30;12.47;;;3.43;;
11771;SDS011;12556;55.748;13.194;2023-09-30T09:21:08;13.43;;;3.07;;
11771;SDS011;12556;55.748;13.194;2023-09-30T09:23:39;13.07;;;3.35;;
11771;SDS011;12556;55.748;13.194;2023-09-30T09:26:07;12.40;;;3.87;;
11771;SDS011;12556;55.748;13.194;2023-09-30T09:28:35;10.47;;;3.30;;
11771;SDS011;12556;55.748;13.194;2023-09-30T09:31:15;13.90;;;3.47;;
11771;SDS011;12556;55.748;13.194;2023-09-30T09:33:47;13.93;;;3.60;;
11771;SDS011;12556;55.748;13.194;2023-09-30T09:36:14;14.27;;;4.00;;
11771;SDS011;12556;55.748;13.194;2023-09-30T09:38:46;13.47;;;3.67;;
11771;SDS011;12556;55.748;13.194;2023-09-30T09:41:15;9.60;;;2.60;;
11771;SDS011;12556;55.748;13.194;2023-09-30T09:43:42;11.18;;;3.30;;
11771;SDS011;12556;55.748;13.194;2023-09-30T09:46:09;10.52;;;3.40;;
11771;SDS011;12556;55.748;13.194;2023-09-30T09:48:37;16.40;;;3.50;;
11771;SDS011;12556;55.748;13.194;2023-09-30T09:51:04;12.98;;;3.28;;
11771;SDS011;12556;55.748;13.194;2023-09-30T09:53:34;7.65;;;2.88;;
11771;SDS011;12556;55.748;13.194;2023-09-30T09:56:04;8.07;;;2.50;;
11771;SDS011;12556;55.748;13.194;2023-09-30T09:58:35;12.23;;;3.10;;
11771;SDS011;12556;55.748;13.194;2023-09-30T10:01:03;10.18;;;3.05;;
11771;SDS011;12556;55.748;13.194;2023-09-30T10:03:32;10.82;;;3.67;;
11771;SDS011;12556;55.748;13.194;2023-09-30T10:05:59;11.35;;;3.25;;
11771;SDS011;12556;55.748;13.194;2023-09-30T10:08:30;10.43;;;3.63;;
11771;SDS011;12556;55.748;13.194;2023-09-30T10:11:01;11.13;;;3.00;;
11771;SDS011;12556;55.748;13.194;2023-09-30T10:19:22;12.40;;;3.72;;
11771;SDS011;12556;55.748;13.194;2023-09-30T10:24:51;8.23;;;3.00;;
11771;SDS011;12556;55.748;13.194;2023-09-30T10:27:32;11.55;;;2.95;;
11771;SDS011;12556;55.748;13.194;2023-09-30T10:30:07;9.80;;;2.80;;
11771;SDS011;12556;55.748;13.194;2023-09-30T10:35:50;12.25;;;3.17;;
11771;SDS011;12556;55.748;13.194;2023-09-30T10:38:37;7.65;;;2.90;;
11771;SDS011;12556;55.748;13.194;2023-09-30T10:41:09;8.95;;;3.05;;
11771;SDS011;12556;55.748;13.194;2023-09-30T10:43:40;11.85;;;3.13;;
11771;SDS011;12556;55.748;13.194;2023-09-30T10:49:16;8.60;;;2.70;;
11771;SDS011;12556;55.748;13.194;2023-09-30T10:51:57;9.45;;;3.15;;
11771;SDS011;12556;55.748;13.194;2023-09-30T10:54:26;9.13;;;2.50;;
11771;SDS011;12556;55.748;13.194;2023-09-30T10:56:54;8.48;;;2.65;;
11771;SDS011;12556;55.748;13.194;2023-09-30T10:59:22;9.73;;;2.58;;
11771;SDS011;12556;55.748;13.194;2023-09-30T11:01:51;7.97;;;3.10;;
11771;SDS011;12556;55.748;13.194;2023-09-30T11:04:18;5.35;;;2.03;;
11771;SDS011;12556;55.748;13.194;2023-09-30T11:06:46;8.25;;;2.55;;
11771;SDS011;12556;55.748;13.194;2023-09-30T11:09:15;7.20;;;2.33;;
11771;SDS011;12556;55.748;13.194;2023-09-30T11:11:43;10.77;;;2.58;;
11771;SDS011;12556;55.748;13.194;2023-09-30T11:14:17;7.03;;;2.50;;
11771;SDS011;12556;55.748;13.194;2023-09-30T11:16:45;10.32;;;2.83;;
11771;SDS011;12556;55.748;13.194;2023-09-30T11:19:13;9.05;;;2.70;;
11771;SDS011;12556;55.748;13.194;2023-09-30T11:21:41;7.35;;;2.15;;
11771;SDS011;12556;55.748;13.194;2023-09-30T11:24:09;10.05;;;2.60;;
11771;SDS011;12556;55.748;13.194;2023-09-30T11:26:36;7.20;;;2.60;;
11771;SDS011;12556;55.748;13.194;2023-09-30T11:29:06;7.20;;;2.30;;
11771;SDS011;12556;55.748;13.194;2023-09-30T11:31:36;9.65;;;2.95;;
11771;SDS011;12556;55.748;13.194;2023-09-30T11:34:03;8.18;;;2.42;;
11771;SDS011;12556;55.748;13.194;2023-09-30T11:36:35;7.15;;;2.33;;
11771;SDS011;12556;55.748;13.194;2023-09-30T11:39:03;7.93;;;2.50;;
11771;SDS011;12556;55.748;13.194;2023-09-30T11:41:34;7.68;;;2.67;;
11771;SDS011;12556;55.748;13.194;2023-09-30T11:44:04;11.02;;;2.63;;
11771;SDS011;12556;55.748;13.194;2023-09-30T11:46:46;10.07;;;2.88;;
11771;SDS011;12556;55.748;13.194;2023-09-30T11:49:24;6.82;;;2.63;;
11771;SDS011;12556;55.748;13.194;2023-09-30T11:51:56;9.75;;;2.80;;
11771;SDS011;12556;55.748;13.194;2023-09-30T11:54:28;10.05;;;3.38;;
11771;SDS011;12556;55.748;13.194;2023-09-30T11:56:56;9.65;;;2.47;;
11771;SDS011;12556;55.748;13.194;2023-09-30T11:59:23;6.55;;;2.63;;
11771;SDS011;12556;55.748;13.194;2023-09-30T12:01:50;8.43;;;2.60;;
11771;SDS011;12556;55.748;13.194;2023-09-30T12:04:18;8.07;;;2.53;;
11771;SDS011;12556;55.748;13.194;2023-09-30T12:06:45;8.55;;;2.90;;
11771;SDS011;12556;55.748;13.194;2023-09-30T12:09:14;15.43;;;2.75;;
11771;SDS011;12556;55.748;13.194;2023-09-30T12:11:47;7.03;;;2.70;;
11771;SDS011;12556;55.748;13.194;2023-09-30T12:14:14;4.38;;;2.40;;
11771;SDS011;12556;55.748;13.194;2023-09-30T12:16:41;8.73;;;2.60;;
11771;SDS011;12556;55.748;13.194;2023-09-30T12:19:10;10.27;;;3.10;;
11771;SDS011;12556;55.748;13.194;2023-09-30T12:21:38;10.57;;;2.90;;
11771;SDS011;12556;55.748;13.194;2023-09-30T12:24:06;10.43;;;2.40;;
11771;SDS011;12556;55.748;13.194;2023-09-30T12:26:35;8.18;;;2.60;;
11771;SDS011;12556;55.748;13.194;2023-09-30T12:29:05;6.93;;;2.85;;
11771;SDS011;12556;55.748;13.194;2023-09-30T12:31:34;9.32;;;2.78;;
11771;SDS011;12556;55.748;13.194;2023-09-30T12:34:01;12.45;;;3.13;;
11771;SDS011;12556;55.748;13.194;2023-09-30T12:36:28;6.93;;;2.60;;
11771;SDS011;12556;55.748;13.194;2023-09-30T12:38:54;10.43;;;2.92;;
11771;SDS011;12556;55.748;13.194;2023-09-30T12:41:21;7.95;;;2.08;;
11771;SDS011;12556;55.748;13.194;2023-09-30T12:43:49;7.05;;;2.55;;
11771;SDS011;12556;55.748;13.194;2023-09-30T12:46:16;8.30;;;2.45;;
11771;SDS011;12556;55.748;13.194;2023-09-30T12:48:43;6.88;;;2.35;;
11771;SDS011;12556;55.748;13.194;2023-09-30T12:51:10;9.60;;;2.55;;
11771;SDS011;12556;55.748;13.194;2023-09-30T12:53:37;4.97;;;2.30;;
11771;SDS011;12556;55.748;13.194;2023-09-30T12:56:04;7.63;;;2.50;;
11771;SDS011;12556;55.748;13.194;2023-09-30T12:58:31;6.55;;;2.10;;
11771;SDS011;12556;55.748;13.194;2023-09-30T13:01:00;8.18;;;3.03;;
11771;SDS011;12556;55.748;13.194;2023-09-30T13:03:27;10.10;;;2.60;;
11771;SDS011;12556;55.748;13.194;2023-09-30T13:05:54;10.82;;;2.75;;
11771;SDS011;12556;55.748;13.194;2023-09-30T13:08:21;8.80;;;2.75;;
11771;SDS011;12556;55.748;13.194;2023-09-30T13:10:48;7.32;;;2.55;;
11771;SDS011;12556;55.748;13.194;2023-09-30T13:13:15;7.85;;;2.40;;
11771;SDS011;12556;55.748;13.194;2023-09-30T13:15:42;9.93;;;2.88;;
11771;SDS011;12556;55.748;13.194;2023-09-30T13:18:11;6.95;;;2.40;;
11771;SDS011;12556;55.748;13.194;2023-09-30T13:20:38;10.30;;;2.97;;
11771;SDS011;12556;55.748;13.194;2023-09-30T13:23:05;11.20;;;2.88;;
11771;SDS011;12556;55.748;13.194;2023-09-30T13:25:32;9.45;;;2.50;;
11771;SDS011;12556;55.748;13.194;2023-09-30T13:27:59;8.63;;;2.83;;
11771;SDS011;12556;55.748;13.194;2023-09-30T13:30:26;7.95;;;1.92;;
11771;SDS011;12556;55.748;13.194;2023-09-30T13:32:53;6.85;;;2.28;;
11771;SDS011;12556;55.748;13.194;2023-09-30T13:35:22;5.85;;;2.60;;
11771;SDS011;12556;55.748;13.194;2023-09-30T13:37:50;9.82;;;2.83;;
11771;SDS011;12556;55.748;13.194;2023-09-30T13:40:16;8.02;;;2.22;;
11771;SDS011;12556;55.748;13.194;2023-09-30T13:42:44;11.50;;;2.63;;
11771;SDS011;12556;55.748;13.194;2023-09-30T13:45:11;6.78;;;2.40;;
11771;SDS011;12556;55.748;13.194;2023-09-30T13:47:42;5.80;;;2.30;;
11771;SDS011;12556;55.748;13.194;2023-09-30T13:50:09;6.30;;;2.30;;
11771;SDS011;12556;55.748;13.194;2023-09-30T13:52:37;3.00;;;1.48;;
11771;SDS011;12556;55.748;13.194;2023-09-30T13:55:04;4.70;;;1.67;;
11771;SDS011;12556;55.748;13.194;2023-09-30T13:57:31;7.20;;;2.20;;
11771;SDS011;12556;55.748;13.194;2023-09-30T13:59:58;5.13;;;1.83;;
11771;SDS011;12556;55.748;13.194;2023-09-30T14:02:25;5.90;;;1.60;;
11771;SDS011;12556;55.748;13.194;2023-09-30T14:04:52;8.85;;;2.08;;
11771;SDS011;12556;55.748;13.194;2023-09-30T14:07:19;4.22;;;1.70;;
11771;SDS011;12556;55.748;13.194;2023-09-30T14:09:47;4.63;;;1.90;;
11771;SDS011;12556;55.748;13.194;2023-09-30T14:12:14;5.80;;;1.83;;
11771;SDS011;12556;55.748;13.194;2023-09-30T14:14:41;7.35;;;2.17;;
11771;SDS011;12556;55.748;13.194;2023-09-30T14:17:08;9.60;;;2.20;;
11771;SDS011;12556;55.748;13.194;2023-09-30T14:19:35;6.60;;;1.63;;
11771;SDS011;12556;55.748;13.194;2023-09-30T14:22:03;6.53;;;1.95;;
11771;SDS011;12556;55.748;13.194;2023-09-30T14:24:31;5.28;;;1.80;;
11771;SDS011;12556;55.748;13.194;2023-09-30T14:27:00;8.50;;;2.05;;
11771;SDS011;12556;55.748;13.194;2023-09-30T14:29:28;8.17;;;2.00;;
11771;SDS011;12556;55.748;13.194;2023-09-30T14:31:55;6.22;;;2.38;;
11771;SDS011;12556;55.748;13.194;2023-09-30T14:34:22;6.37;;;1.97;;
11771;SDS011;12556;55.748;13.194;2023-09-30T14:36:49;6.37;;;1.83;;
11771;SDS011;12556;55.748;13.194;2023-09-30T14:39:16;5.37;;;2.27;;
11771;SDS011;12556;55.748;13.194;2023-09-30T14:41:43;2.77;;;1.90;;
11771;SDS011;12556;55.748;13.194;2023-09-30T14:44:12;6.78;;;2.08;;
11771;SDS011;12556;55.748;13.194;2023-09-30T14:46:39;8.63;;;2.73;;